createdAt,value
2019-01-11T00:02:26.103Z,2.01
2019-01-11T00:07:28.546Z,1.99
2019-01-11T00:12:30.987Z,1.92
2019-01-11T00:17:33.428Z,1.89
2019-01-11T00:22:35.865Z,2.05
2019-01-11T00:27:44.750Z,2.14
2019-01-11T00:32:47.148Z,1.95
2019-01-11T00:37:49.595Z,1.87
2019-01-11T00:42:52.048Z,2.02
2019-01-11T00:47:54.549Z,2.37
2019-01-11T00:52:56.969Z,2.42
2019-01-11T00:57:59.443Z,2.39
2019-01-11T01:03:01.899Z,2.18
2019-01-11T01:08:04.337Z,2.24
2019-01-11T01:13:06.803Z,2.20
2019-01-11T01:18:09.260Z,2.22
2019-01-11T01:23:11.714Z,2.29
2019-01-11T01:28:14.166Z,2.28
2019-01-11T01:33:16.624Z,2.39
2019-01-11T01:38:19.071Z,2.46
2019-01-11T01:43:21.527Z,2.41
2019-01-11T01:48:23.978Z,2.46
2019-01-11T01:53:26.449Z,2.48
2019-01-11T01:58:28.909Z,2.43
2019-01-11T02:03:31.381Z,2.55
2019-01-11T02:08:33.853Z,2.76
2019-01-11T02:13:36.330Z,2.67
2019-01-11T02:18:38.785Z,2.60
2019-01-11T02:23:41.242Z,2.70
2019-01-11T02:28:43.699Z,2.70
2019-01-11T02:33:46.159Z,2.75
2019-01-11T02:38:48.673Z,2.72
2019-01-11T02:43:51.125Z,2.72
2019-01-11T02:48:53.604Z,2.61
2019-01-11T02:53:56.051Z,2.52
2019-01-11T02:58:58.526Z,2.49
2019-01-11T03:04:00.980Z,2.44
2019-01-11T03:09:03.443Z,2.38
2019-01-11T03:14:05.910Z,2.50
2019-01-11T03:19:08.440Z,2.46
2019-01-11T03:24:10.908Z,2.49
2019-01-11T03:29:13.395Z,2.68
2019-01-11T03:34:15.848Z,2.77
2019-01-11T03:39:18.304Z,2.72
2019-01-11T03:44:20.779Z,2.74
2019-01-11T03:49:23.248Z,2.72
2019-01-11T03:54:25.688Z,2.64
2019-01-11T03:59:28.138Z,2.87
2019-01-11T04:04:30.591Z,2.88
2019-01-11T04:09:33.052Z,2.85
2019-01-11T04:14:35.533Z,2.86
2019-01-11T04:19:37.994Z,2.89
2019-01-11T04:24:43.353Z,2.85
2019-01-11T04:29:45.822Z,2.69
2019-01-11T04:34:48.269Z,2.66
2019-01-11T04:39:50.741Z,2.74
2019-01-11T04:44:53.238Z,2.83
2019-01-11T04:49:55.700Z,2.69
2019-01-11T04:54:58.166Z,2.70
2019-01-11T05:00:00.633Z,2.80
2019-01-11T05:05:03.120Z,2.63
2019-01-11T05:10:05.588Z,2.75
2019-01-11T05:15:08.038Z,2.76
2019-01-11T05:20:16.574Z,2.72
2019-01-11T05:25:12.977Z,2.68
2019-01-11T05:30:15.529Z,2.77
2019-01-11T05:35:17.963Z,2.58
2019-01-11T05:40:20.415Z,2.61
2019-01-11T05:45:22.865Z,2.60
2019-01-11T05:50:25.382Z,2.61
2019-01-11T05:55:30.365Z,2.68
2019-01-11T06:00:32.830Z,2.68
2019-01-11T06:05:35.276Z,2.84
2019-01-11T06:10:37.740Z,2.83
2019-01-11T06:15:40.218Z,2.88
2019-01-11T06:20:42.681Z,2.82
2019-01-11T06:25:45.284Z,2.78
2019-01-11T06:36:02.849Z,2.78
2019-01-11T06:41:05.371Z,2.89
2019-01-11T06:46:07.825Z,2.79
2019-01-11T06:51:10.302Z,2.89
2019-01-11T06:56:12.767Z,2.96
2019-01-11T07:01:15.253Z,3.10
2019-01-11T07:06:17.699Z,3.07
2019-01-11T07:11:20.248Z,3.12
2019-01-11T07:16:22.709Z,3.12
2019-01-11T07:21:25.190Z,3.16
2019-01-11T07:26:27.658Z,3.21
2019-01-11T07:31:30.112Z,3.22
2019-01-11T07:36:32.578Z,3.21
2019-01-11T07:41:35.049Z,3.26
2019-01-11T07:46:37.498Z,3.20
2019-01-11T07:51:39.988Z,3.26
2019-01-11T07:56:42.520Z,3.23
2019-01-11T08:01:44.971Z,3.25
2019-01-11T08:06:47.435Z,3.40
2019-01-11T08:11:49.897Z,3.51
2019-01-11T08:16:52.361Z,3.64
2019-01-11T08:21:54.829Z,3.62
2019-01-11T08:26:57.292Z,3.71
2019-01-11T08:31:59.752Z,3.70
2019-01-11T08:37:02.208Z,3.72
2019-01-11T08:42:04.663Z,3.82
2019-01-11T08:47:07.114Z,3.82
2019-01-11T08:52:09.567Z,3.85
2019-01-11T08:57:12.349Z,3.89
2019-01-11T09:02:14.816Z,3.91
2019-01-11T09:07:17.272Z,3.92
2019-01-11T09:12:19.725Z,4.05
2019-01-11T09:17:22.190Z,3.95
2019-01-11T09:22:24.647Z,4.02
2019-01-11T09:27:27.147Z,4.05
2019-01-11T09:32:29.596Z,4.15
2019-01-11T09:37:32.046Z,4.02
2019-01-11T09:42:34.509Z,4.20
2019-01-11T09:47:37.014Z,4.26
2019-01-11T09:52:39.476Z,4.29
2019-01-11T09:57:41.953Z,4.25
2019-01-11T10:02:44.428Z,4.22
2019-01-11T10:07:46.891Z,4.17
2019-01-11T10:12:49.362Z,4.27
2019-01-11T10:17:51.814Z,4.26
2019-01-11T10:22:54.293Z,4.25
2019-01-11T10:27:56.742Z,4.18
2019-01-11T10:32:59.530Z,4.26
2019-01-11T10:38:01.989Z,4.24
2019-01-11T10:43:04.469Z,4.24
2019-01-11T10:48:06.938Z,4.39
2019-01-11T10:53:09.391Z,4.20
2019-01-11T10:58:11.825Z,4.27
2019-01-11T11:03:14.294Z,4.29
2019-01-11T11:08:16.769Z,4.43
2019-01-11T11:13:19.244Z,4.41
2019-01-11T11:18:21.703Z,4.29
2019-01-11T11:23:24.180Z,4.20
2019-01-11T11:28:26.634Z,4.19
2019-01-11T11:33:29.102Z,4.29
2019-01-11T11:38:31.567Z,4.36
2019-01-11T11:43:34.025Z,4.37
2019-01-11T11:48:36.493Z,4.38
2019-01-11T11:53:38.957Z,4.31
2019-01-11T11:58:41.419Z,4.38
2019-01-11T12:03:43.893Z,4.40
2019-01-11T12:08:49.719Z,4.50
2019-01-11T12:13:52.184Z,4.36
2019-01-11T12:18:54.649Z,4.27
2019-01-11T12:23:57.110Z,4.23
2019-01-11T12:28:59.656Z,4.12
2019-01-11T12:34:02.062Z,3.96
2019-01-11T12:39:04.555Z,4.01
2019-01-11T12:44:07.026Z,3.95
2019-01-11T12:49:09.519Z,3.81
2019-01-11T12:54:11.986Z,3.80
2019-01-11T12:59:14.462Z,3.69
2019-01-11T13:04:16.912Z,3.70
2019-01-11T13:09:19.384Z,3.74
2019-01-11T13:14:21.851Z,3.74
2019-01-11T13:19:24.371Z,3.61
2019-01-11T13:24:26.853Z,3.50
2019-01-11T13:29:29.312Z,3.48
2019-01-11T13:34:32.851Z,3.49
2019-01-11T13:39:34.239Z,3.55
2019-01-11T13:44:36.702Z,3.51
2019-01-11T13:49:39.188Z,3.58
2019-01-11T13:54:41.649Z,3.60
2019-01-11T13:59:44.124Z,3.62
2019-01-11T14:04:46.650Z,3.74
2019-01-11T14:09:49.106Z,3.74
2019-01-11T14:14:51.564Z,3.79
2019-01-11T14:19:54.062Z,3.75
2019-01-11T14:24:56.522Z,3.62
2019-01-11T14:29:59.004Z,3.60
2019-01-11T14:35:01.491Z,3.61
2019-01-11T14:40:03.948Z,3.55
2019-01-11T14:45:06.404Z,3.67
2019-01-11T14:50:11.551Z,3.48
2019-01-11T14:55:14.024Z,3.39
2019-01-11T15:00:19.129Z,3.44
2019-01-11T15:05:21.611Z,3.36
2019-01-11T15:10:24.076Z,3.35
2019-01-11T15:15:26.563Z,3.35
2019-01-11T15:20:29.088Z,3.26
2019-01-11T15:25:31.561Z,3.28
2019-01-11T15:30:34.026Z,3.24
2019-01-11T15:35:36.496Z,3.19
2019-01-11T15:40:38.960Z,3.18
2019-01-11T15:45:41.456Z,3.16
2019-01-11T15:50:46.852Z,3.08
2019-01-11T15:55:49.345Z,3.08
2019-01-11T16:00:51.823Z,3.12
2019-01-11T16:06:15.601Z,3.11
2019-01-11T16:11:29.960Z,3.02
2019-01-11T16:16:32.441Z,2.99
2019-01-11T16:21:34.901Z,3.03
2019-01-11T16:26:37.435Z,3.08
2019-01-11T16:31:39.880Z,3.10
2019-01-11T16:36:42.347Z,3.06
2019-01-11T16:41:44.824Z,3.12
2019-01-11T16:46:47.293Z,3.12
2019-01-11T16:51:49.763Z,3.17
2019-01-11T16:56:52.230Z,3.15
2019-01-11T17:01:54.711Z,3.15
2019-01-11T17:06:57.165Z,3.17
2019-01-11T17:11:59.625Z,3.16
2019-01-11T17:17:02.111Z,3.20
2019-01-11T17:22:04.588Z,3.26
2019-01-11T17:27:07.059Z,3.23
2019-01-11T17:32:09.524Z,3.21
2019-01-11T17:37:12.014Z,3.17
2019-01-11T17:42:14.489Z,3.23
2019-01-11T17:47:16.969Z,3.28
2019-01-11T17:52:19.433Z,3.25
2019-01-11T17:57:21.935Z,3.27
2019-01-11T18:02:24.400Z,3.25
2019-01-11T18:07:26.874Z,3.27
2019-01-11T18:12:29.330Z,3.31
2019-01-11T18:17:31.818Z,3.32
2019-01-11T18:22:34.290Z,3.27
2019-01-11T18:27:36.773Z,3.20
2019-01-11T18:32:39.257Z,3.23
2019-01-11T18:37:41.733Z,3.24
2019-01-11T18:42:44.202Z,3.21
2019-01-11T18:47:46.693Z,3.23
2019-01-11T18:52:49.179Z,3.24
2019-01-11T18:57:51.647Z,3.20
2019-01-11T19:02:54.119Z,3.23
2019-01-11T19:07:56.578Z,3.22
2019-01-11T19:13:01.912Z,3.27
2019-01-11T19:18:04.356Z,3.22
2019-01-11T19:23:06.889Z,3.31
2019-01-11T19:28:09.371Z,3.27
2019-01-11T19:33:11.852Z,3.23
2019-01-11T19:38:14.380Z,3.28
2019-01-11T19:43:16.822Z,3.26
2019-01-11T19:48:19.306Z,3.20
2019-01-11T19:53:27.405Z,3.27
2019-01-11T19:58:24.279Z,3.27
2019-01-11T20:03:26.781Z,3.34
2019-01-11T20:08:29.245Z,3.26
2019-01-11T20:13:31.714Z,3.28
2019-01-11T20:18:34.249Z,3.27
2019-01-11T20:23:37.034Z,3.33
2019-01-11T20:28:39.137Z,3.33
2019-01-11T20:33:41.619Z,3.30
2019-01-11T20:38:44.089Z,3.27
2019-01-11T20:43:46.550Z,3.27
2019-01-11T20:48:49.028Z,3.36
2019-01-11T20:53:51.489Z,3.30
2019-01-11T20:58:54.000Z,3.33
2019-01-11T21:03:56.458Z,3.31
2019-01-11T21:08:58.937Z,3.39
2019-01-11T21:14:01.404Z,3.35
2019-01-11T21:19:03.875Z,3.37
2019-01-11T21:24:06.408Z,3.42
2019-01-11T21:29:08.926Z,3.38
2019-01-11T21:34:11.403Z,3.36
2019-01-11T21:39:13.891Z,3.40
2019-01-11T21:44:16.334Z,3.41
2019-01-11T21:49:18.856Z,3.43
2019-01-11T21:54:21.286Z,3.43
2019-01-11T21:59:23.789Z,3.44
2019-01-11T22:04:26.261Z,3.45
2019-01-11T22:09:28.749Z,3.45
2019-01-11T22:14:31.213Z,3.33
2019-01-11T22:19:33.728Z,3.44
2019-01-11T22:24:36.183Z,3.41
2019-01-11T22:29:38.654Z,3.40
2019-01-11T22:34:41.124Z,3.41
2019-01-11T22:39:43.648Z,3.47
2019-01-11T22:44:46.125Z,3.45
2019-01-11T22:49:48.572Z,3.51
2019-01-11T22:54:51.036Z,3.49
2019-01-11T22:59:53.498Z,3.48
2019-01-11T23:04:55.976Z,3.53
2019-01-11T23:09:58.434Z,3.47
2019-01-11T23:15:00.907Z,3.61
2019-01-11T23:20:03.387Z,3.53
2019-01-11T23:25:05.847Z,3.49
2019-01-11T23:30:08.284Z,3.53
2019-01-11T23:35:10.739Z,3.53
2019-01-11T23:40:13.206Z,3.55
2019-01-11T23:45:15.679Z,3.53
2019-01-11T23:50:18.147Z,3.54
2019-01-11T23:55:20.607Z,3.56
